Time;durP1;ratioP1;P1;durP2;ratioP2;P2;SDS_P1;SDS_P2;PMS_P1;PMS_P2;Temp;Humidity;BMP_temperature;BMP_pressure;BME280_temperature;BME280_humidity;BME280_pressure;Samples;Min_cycle;Max_cycle;Signal;HPM_P1;HPM_P2
2023/06/14 00:02:01;;;;;;;8.63;6.05;;;;;;;12.52;84.47;99638.97;5032526;28;20180;-78
2023/06/14 00:04:26;;;;;;;6.45;5.78;;;;;;;12.41;84.51;99610.78;5032472;28;20045;-78
2023/06/14 00:06:52;;;;;;;6.63;5.00;;;;;;;12.34;84.64;99604.22;5032226;28;20052;-78
2023/06/14 00:09:18;;;;;;;6.80;5.43;;;;;;;12.39;85.05;99623.94;5032371;28;20029;-78
2023/06/14 00:11:43;;;;;;;6.68;5.18;;;;;;;12.40;85.42;99616.97;5031952;28;20034;-78
2023/06/14 00:14:09;;;;;;;6.70;5.53;;;;;;;12.39;85.00;99620.50;5032159;28;20108;-78
2023/06/14 00:16:35;;;;;;;7.10;5.90;;;;;;;12.51;85.26;99647.69;5032083;28;20052;-78
2023/06/14 00:19:03;;;;;;;7.15;5.72;;;;;;;12.41;85.23;99627.31;5032334;28;20484;-78
2023/06/14 00:21:29;;;;;;;9.02;5.70;;;;;;;12.47;85.59;99644.41;5032214;28;20040;-78
2023/06/14 00:23:55;;;;;;;8.88;6.45;;;;;;;12.36;85.78;99641.56;5031355;28;20030;-78
2023/06/14 00:26:20;;;;;;;7.15;6.10;;;;;;;12.30;86.13;99641.88;5032000;28;20025;-78
2023/06/14 00:28:46;;;;;;;8.13;6.65;;;;;;;12.22;86.45;99639.69;5032031;28;20095;-78
2023/06/14 00:31:11;;;;;;;9.63;6.90;;;;;;;12.01;87.19;99615.56;5032086;28;20431;-78
2023/06/14 00:33:36;;;;;;;8.77;6.68;;;;;;;12.25;87.54;99647.34;5031776;28;20080;-78
2023/06/14 00:36:02;;;;;;;8.48;6.82;;;;;;;12.17;87.99;99644.28;5032051;28;20028;-78
2023/06/14 00:38:27;;;;;;;9.13;7.15;;;;;;;12.23;88.66;99659.66;5032430;28;20029;-78
2023/06/14 00:40:52;;;;;;;8.63;7.45;;;;;;;12.15;89.78;99664.44;5031699;28;20033;-78
2023/06/14 00:43:18;;;;;;;8.95;7.85;;;;;;;11.99;90.27;99636.50;5031806;28;20025;-78
2023/06/14 00:45:44;;;;;;;8.73;7.60;;;;;;;11.96;90.69;99630.59;5031545;28;20108;-78
2023/06/14 00:48:11;;;;;;;8.77;7.38;;;;;;;11.85;91.77;99630.34;5032329;28;20056;-78
2023/06/14 00:50:38;;;;;;;8.13;7.15;;;;;;;11.85;91.96;99641.63;5031585;28;20033;-78
2023/06/14 00:53:04;;;;;;;9.23;7.32;;;;;;;11.83;91.71;99635.63;5031776;28;20078;-78
2023/06/14 00:55:29;;;;;;;8.98;7.53;;;;;;;11.85;91.93;99649.44;5031683;28;20029;-78
2023/06/14 00:57:55;;;;;;;8.57;7.15;;;;;;;11.93;91.90;99656.88;5031517;28;20429;-78
2023/06/14 01:00:21;;;;;;;7.82;7.03;;;;;;;11.85;92.22;99659.88;5031920;28;20414;-78
2023/06/14 01:02:47;;;;;;;7.78;6.97;;;;;;;11.87;92.04;99663.25;5031392;28;20026;-78
2023/06/14 01:05:14;;;;;;;8.65;7.68;;;;;;;11.81;92.11;99653.09;5031675;28;20083;-78
2023/06/14 01:07:57;;;;;;;9.82;7.70;;;;;;;11.85;92.40;99653.84;5031404;28;20044;-78
2023/06/14 01:10:51;;;;;;;10.93;7.70;;;;;;;11.76;93.81;99655.13;5031827;28;20168;-78
2023/06/14 01:13:27;;;;;;;8.85;7.47;;;;;;;11.71;93.52;99639.69;5029089;28;20048;-78
2023/06/14 01:15:54;;;;;;;9.35;7.30;;;;;;;11.61;93.86;99612.38;5028990;28;20037;-78
2023/06/14 01:18:19;;;;;;;10.07;7.22;;;;;;;11.83;94.20;99640.84;5029069;28;20094;-78
2023/06/14 01:20:50;;;;;;;9.65;8.13;;;;;;;11.65;93.84;99619.13;5028762;28;20025;-78
2023/06/14 01:23:20;;;;;;;9.52;8.48;;;;;;;11.70;94.45;99637.16;5028918;28;20029;-78
2023/06/14 01:25:46;;;;;;;9.73;8.27;;;;;;;11.71;95.35;99650.13;5028742;28;20029;-78
2023/06/14 01:28:14;;;;;;;13.38;9.00;;;;;;;11.73;95.73;99658.72;5029044;28;20040;-78
2023/06/14 01:30:45;;;;;;;9.82;8.82;;;;;;;11.58;96.13;99627.34;5028734;28;20190;-78
2023/06/14 01:33:16;;;;;;;12.40;9.13;;;;;;;11.55;95.85;99619.69;5028868;28;20540;-78
2023/06/14 01:35:44;;;;;;;13.32;9.20;;;;;;;11.68;96.01;99639.84;5030550;28;20448;-78
2023/06/14 01:38:09;;;;;;;11.55;9.02;;;;;;;11.71;96.10;99641.44;5032698;28;20405;-78
2023/06/14 01:40:35;;;;;;;10.60;9.50;;;;;;;11.73;96.05;99637.84;5032633;28;20064;-78
2023/06/14 01:43:03;;;;;;;10.70;8.75;;;;;;;11.54;95.91;99616.22;5032660;28;20497;-78
2023/06/14 01:45:29;;;;;;;10.75;9.38;;;;;;;11.48;96.27;99611.31;5032555;28;20094;-78
2023/06/14 01:47:55;;;;;;;12.38;9.07;;;;;;;11.62;96.24;99650.59;5032609;28;20037;-78
2023/06/14 01:50:20;;;;;;;11.77;9.00;;;;;;;11.45;96.33;99614.91;5034067;28;20037;-78
2023/06/14 01:52:46;;;;;;;11.43;8.95;;;;;;;11.61;96.52;99642.84;5034686;28;20040;-78
2023/06/14 01:55:11;;;;;;;10.70;8.80;;;;;;;11.61;96.71;99637.63;5035125;28;20033;-78
2023/06/14 01:57:36;;;;;;;12.13;9.52;;;;;;;11.47;96.93;99633.13;5034637;28;20056;-78
2023/06/14 02:00:03;;;;;;;12.23;9.90;;;;;;;11.46;97.14;99636.63;5034690;28;20381;-78
2023/06/14 02:02:29;;;;;;;12.15;9.27;;;;;;;11.38;97.21;99608.34;5034588;28;20045;-78
2023/06/14 02:04:57;;;;;;;12.80;8.98;;;;;;;11.51;96.96;99626.84;5034509;28;20029;-78
2023/06/14 02:07:22;;;;;;;11.48;9.52;;;;;;;11.52;97.24;99631.13;5034763;28;20032;-78
2023/06/14 02:09:48;;;;;;;11.95;8.73;;;;;;;11.57;97.29;99625.66;5034351;28;20393;-78
2023/06/14 02:12:13;;;;;;;11.07;8.48;;;;;;;11.57;97.69;99626.50;5034610;28;20053;-78
2023/06/14 02:14:39;;;;;;;11.43;9.35;;;;;;;11.43;97.65;99606.34;5034211;28;20061;-78
2023/06/14 02:17:06;;;;;;;10.60;9.07;;;;;;;11.42;97.41;99601.22;5034654;28;20432;-78
2023/06/14 02:19:31;;;;;;;9.60;8.60;;;;;;;11.62;97.16;99629.72;5034523;28;20064;-78
2023/06/14 02:21:57;;;;;;;10.15;8.63;;;;;;;11.65;96.91;99626.13;5034563;28;20061;-78
2023/06/14 02:24:23;;;;;;;9.48;8.00;;;;;;;11.56;95.95;99608.34;5034355;28;20436;-78
2023/06/14 02:26:49;;;;;;;11.13;8.38;;;;;;;11.74;95.95;99638.69;5034277;28;20423;-78
2023/06/14 02:29:14;;;;;;;9.50;7.30;;;;;;;11.61;95.48;99609.78;5034178;28;20104;-78
2023/06/14 02:31:40;;;;;;;8.35;7.50;;;;;;;11.83;94.76;99647.84;5034348;28;20151;-78
2023/06/14 02:34:08;;;;;;;9.95;8.05;;;;;;;11.82;94.50;99641.75;5034123;28;20099;-78
2023/06/14 02:36:35;;;;;;;10.10;7.07;;;;;;;11.68;93.86;99612.91;5034006;28;20489;-78
2023/06/14 02:39:00;;;;;;;8.18;7.30;;;;;;;11.76;93.32;99625.56;5033759;28;20029;-78
2023/06/14 02:41:26;;;;;;;8.32;6.90;;;;;;;11.80;93.24;99641.00;5034023;28;20462;-78
2023/06/14 02:43:56;;;;;;;7.18;6.47;;;;;;;11.61;92.98;99615.00;5033592;28;20044;-78
2023/06/14 02:46:21;;;;;;;8.57;7.57;;;;;;;11.61;92.89;99619.38;5033466;28;20488;-78
2023/06/14 02:48:46;;;;;;;7.60;6.35;;;;;;;11.74;93.43;99647.34;5033805;28;20026;-78
2023/06/14 02:51:12;;;;;;;9.05;7.25;;;;;;;11.64;94.60;99637.47;5033931;28;20030;-78
2023/06/14 02:53:38;;;;;;;9.05;6.75;;;;;;;11.71;95.10;99651.88;5033893;28;20344;-78
2023/06/14 02:56:06;;;;;;;9.07;7.40;;;;;;;11.53;95.41;99618.91;5033489;28;20029;-78
2023/06/14 02:58:32;;;;;;;11.00;8.38;;;;;;;11.65;96.16;99657.41;5034081;28;20025;-78
2023/06/14 03:01:02;;;;;;;11.75;9.65;;;;;;;11.52;96.70;99641.56;5033460;28;20026;-78
2023/06/14 03:03:27;;;;;;;10.57;9.20;;;;;;;11.64;96.52;99643.53;5033805;28;20032;-78
2023/06/14 03:05:54;;;;;;;11.20;8.73;;;;;;;11.58;96.04;99619.50;5033495;28;20029;-78
2023/06/14 03:08:20;;;;;;;10.88;8.70;;;;;;;11.74;95.80;99647.34;5033636;28;20032;-78
2023/06/14 03:10:46;;;;;;;11.27;9.05;;;;;;;11.62;95.34;99619.28;5033232;28;20021;-78
2023/06/14 03:13:12;;;;;;;13.80;9.50;;;;;;;11.76;95.53;99634.25;5033524;28;20090;-78
2023/06/14 03:15:41;;;;;;;15.55;9.65;;;;;;;11.71;95.59;99629.25;5033269;28;20580;-78
2023/06/14 03:18:09;;;;;;;12.70;9.05;;;;;;;11.69;95.11;99614.59;5033325;28;20473;-78
2023/06/14 03:20:35;;;;;;;11.02;9.10;;;;;;;11.84;95.31;99633.84;5033304;28;20103;-78
2023/06/14 03:23:02;;;;;;;11.45;9.23;;;;;;;11.72;95.40;99619.66;5032930;28;20034;-78
2023/06/14 03:25:29;;;;;;;9.80;8.02;;;;;;;11.87;94.77;99633.69;5033576;28;20465;-78
2023/06/14 03:27:55;;;;;;;10.32;8.32;;;;;;;11.80;94.47;99612.28;5032837;28;20097;-78
2023/06/14 03:30:20;;;;;;;8.50;7.63;;;;;;;11.86;94.39;99627.66;5033564;28;20382;-78
2023/06/14 03:32:46;;;;;;;10.55;8.32;;;;;;;11.85;94.60;99607.69;5032791;28;20029;-78
2023/06/14 03:35:16;;;;;;;9.80;8.30;;;;;;;11.94;95.48;99632.47;5032907;28;20053;-78
2023/06/14 03:37:43;;;;;;;9.73;8.52;;;;;;;12.05;95.46;99640.59;5032649;28;20041;-78
2023/06/14 03:40:08;;;;;;;11.38;9.13;;;;;;;12.00;95.48;99632.13;5032749;28;20225;-78
2023/06/14 03:42:34;;;;;;;12.77;8.88;;;;;;;12.03;95.79;99633.75;5032876;28;20025;-78
2023/06/14 03:44:59;;;;;;;10.45;7.63;;;;;;;12.09;95.60;99642.09;5032745;28;20100;-78
2023/06/14 03:47:25;;;;;;;12.70;8.27;;;;;;;12.06;95.65;99636.22;5032787;28;20029;-78
2023/06/14 03:49:50;;;;;;;10.43;8.48;;;;;;;11.95;95.47;99606.28;5032358;28;20021;-78
2023/06/14 03:52:17;;;;;;;11.55;9.40;;;;;;;12.26;95.26;99640.34;5032593;28;20029;-78
2023/06/14 03:54:44;;;;;;;11.63;9.65;;;;;;;12.14;95.10;99628.81;5032312;28;20075;-78
2023/06/14 03:57:10;;;;;;;13.75;11.70;;;;;;;12.03;95.38;99621.53;5032197;28;20108;-78
2023/06/14 03:59:36;;;;;;;13.68;10.88;;;;;;;12.18;95.49;99646.84;5032175;28;20029;-78
2023/06/14 04:02:02;;;;;;;17.70;10.68;;;;;;;12.02;96.19;99619.84;5032234;28;20466;-78
2023/06/14 04:04:29;;;;;;;17.45;11.02;;;;;;;12.23;95.74;99631.75;5032509;28;20108;-78
2023/06/14 04:06:58;;;;;;;13.15;10.63;;;;;;;12.40;95.29;99648.31;5032279;28;20592;-78
2023/06/14 04:09:24;;;;;;;11.00;9.68;;;;;;;12.62;94.84;99661.03;5032302;28;20025;-78
2023/06/14 04:11:52;;;;;;;13.30;10.18;;;;;;;12.52;95.64;99645.03;5032362;28;20092;-78
2023/06/14 04:14:18;;;;;;;11.75;9.88;;;;;;;12.64;95.77;99665.25;5032430;28;20022;-78
2023/06/14 04:16:44;;;;;;;10.90;9.55;;;;;;;12.67;95.13;99643.31;5032172;28;20036;-78
2023/06/14 04:19:09;;;;;;;10.63;9.48;;;;;;;12.84;94.91;99651.06;5032367;28;20393;-78
2023/06/14 04:21:34;;;;;;;10.60;9.50;;;;;;;13.04;94.74;99667.41;5032630;28;20033;-78
2023/06/14 04:24:01;;;;;;;10.75;9.10;;;;;;;13.13;94.68;99665.13;5031899;28;20022;-78
2023/06/14 04:26:29;;;;;;;11.05;9.15;;;;;;;13.29;93.99;99672.97;5032521;28;20029;-78
2023/06/14 04:28:56;;;;;;;13.63;9.95;;;;;;;13.20;94.23;99637.69;5031940;28;20473;-78
2023/06/14 04:31:24;;;;;;;11.70;9.60;;;;;;;13.28;94.52;99642.50;5032071;28;20036;-78
2023/06/14 04:33:50;;;;;;;10.68;9.55;;;;;;;13.33;94.41;99650.94;5031710;28;20049;-78
2023/06/14 04:36:17;;;;;;;11.73;10.45;;;;;;;13.55;94.42;99662.75;5032015;28;20080;-78
2023/06/14 04:38:44;;;;;;;13.60;11.10;;;;;;;13.52;94.47;99658.53;5031814;28;20029;-78
2023/06/14 04:41:11;;;;;;;16.40;11.32;;;;;;;13.70;93.95;99672.34;5032068;28;20029;-78
2023/06/14 04:43:37;;;;;;;13.48;10.95;;;;;;;13.76;93.73;99681.59;5032038;28;20405;-78
2023/06/14 04:46:10;;;;;;;13.55;11.48;;;;;;;13.68;93.44;99661.94;5031665;28;20021;-78
2023/06/14 04:48:40;;;;;;;12.93;11.02;;;;;;;13.73;93.63;99680.00;5032009;28;20025;-78
2023/06/14 04:51:06;;;;;;;14.68;11.52;;;;;;;13.61;93.54;99663.25;5031560;28;20025;-78
2023/06/14 04:53:32;;;;;;;15.00;11.82;;;;;;;13.60;93.40;99666.78;5031810;28;20029;-78
2023/06/14 04:55:57;;;;;;;13.60;11.05;;;;;;;13.71;93.58;99666.16;5031851;28;20495;-78
2023/06/14 04:58:22;;;;;;;14.98;12.07;;;;;;;13.82;93.11;99682.09;5032167;28;20354;-78
2023/06/14 05:00:48;;;;;;;17.00;11.35;;;;;;;13.62;92.64;99661.47;5031486;28;20555;-78
2023/06/14 05:03:13;;;;;;;14.70;12.43;;;;;;;13.71;92.50;99669.63;5031961;28;20120;-78
2023/06/14 05:05:41;;;;;;;13.30;10.52;;;;;;;13.73;92.47;99667.75;5031592;28;20029;-78
2023/06/14 05:08:08;;;;;;;13.48;10.77;;;;;;;13.67;92.51;99647.19;5031717;28;20033;-78
2023/06/14 05:10:35;;;;;;;16.90;13.10;;;;;;;14.16;92.09;99685.31;5034984;28;20021;-78
2023/06/14 05:13:01;;;;;;;17.25;12.43;;;;;;;14.32;91.16;99693.03;5035490;28;20355;-78
2023/06/14 05:15:27;;;;;;;17.58;13.73;;;;;;;14.37;89.84;99660.41;5035672;28;20096;-78
2023/06/14 05:17:55;;;;;;;17.70;13.98;;;;;;;15.37;87.73;99691.59;5035705;28;20037;-78
2023/06/14 05:20:24;;;;;;;17.85;13.95;;;;;;;15.87;85.40;99692.66;5035536;28;20026;-78
2023/06/14 05:22:52;;;;;;;25.40;18.27;;;;;;;15.68;85.50;99693.09;5035393;28;20036;-78
2023/06/14 05:25:17;;;;;;;25.90;18.13;;;;;;;15.29;86.79;99679.94;5035373;28;20026;-77
2023/06/14 05:27:42;;;;;;;25.75;18.52;;;;;;;15.29;87.85;99699.13;5035534;28;20025;-77
2023/06/14 05:30:09;;;;;;;20.17;15.70;;;;;;;15.23;88.50;99703.00;5035247;28;20034;-77
2023/06/14 05:32:34;;;;;;;23.48;16.73;;;;;;;15.14;88.88;99700.16;5035300;28;20025;-77
2023/06/14 05:34:59;;;;;;;19.13;13.98;;;;;;;14.98;89.39;99680.13;5035218;28;20049;-77
2023/06/14 05:37:25;;;;;;;17.85;13.15;;;;;;;15.03;89.69;99690.34;5035450;28;20045;-77
2023/06/14 05:39:50;;;;;;;15.93;13.10;;;;;;;15.16;89.72;99699.09;5035123;28;20029;-77
2023/06/14 05:42:16;;;;;;;17.33;11.43;;;;;;;15.18;89.71;99670.97;5035803;28;20071;-77
2023/06/14 05:44:41;;;;;;;15.43;11.95;;;;;;;15.28;89.47;99670.38;5035030;28;20032;-77
2023/06/14 05:47:06;;;;;;;17.73;13.88;;;;;;;15.47;88.71;99670.84;5034862;28;20037;-77
2023/06/14 05:49:32;;;;;;;20.77;14.93;;;;;;;15.65;87.88;99669.66;5034895;28;20057;-77
2023/06/14 05:51:57;;;;;;;18.58;13.45;;;;;;;15.71;87.45;99635.09;5034813;28;20033;-77
2023/06/14 05:54:22;;;;;;;16.48;12.20;;;;;;;16.05;86.74;99637.19;5035042;28;20469;-77
2023/06/14 05:56:48;;;;;;;18.63;14.05;;;;;;;16.37;86.01;99663.84;5033632;28;20063;-77
2023/06/14 05:59:13;;;;;;;19.73;13.80;;;;;;;16.83;84.64;99679.88;5035013;28;20112;-77
2023/06/14 06:01:40;;;;;;;17.35;13.43;;;;;;;16.95;82.81;99667.63;5034653;28;20521;-77
2023/06/14 06:04:06;;;;;;;16.85;13.70;;;;;;;16.86;82.60;99670.91;5034283;28;20033;-77
2023/06/14 06:06:32;;;;;;;15.93;12.13;;;;;;;16.92;82.91;99667.84;5034817;28;20075;-77
2023/06/14 06:08:57;;;;;;;19.92;14.02;;;;;;;17.39;82.67;99705.63;5033210;28;20043;-77
2023/06/14 06:11:23;;;;;;;18.60;13.30;;;;;;;17.41;81.91;99699.28;5034673;28;20021;-77
2023/06/14 06:13:48;;;;;;;21.73;14.38;;;;;;;17.37;81.28;99682.03;5034562;28;20033;-77
2023/06/14 06:16:14;;;;;;;17.30;13.07;;;;;;;17.26;81.02;99666.19;5034202;28;20025;-78
2023/06/14 06:18:40;;;;;;;18.92;14.13;;;;;;;17.60;81.02;99716.34;5034383;28;20026;-78
2023/06/14 06:21:06;;;;;;;19.92;14.25;;;;;;;17.35;81.92;99706.78;5033478;28;20040;-77
2023/06/14 06:23:31;;;;;;;19.35;15.40;;;;;;;16.95;82.97;99688.66;5034475;28;20037;-77
2023/06/14 06:25:56;;;;;;;26.65;17.70;;;;;;;16.63;84.58;99698.81;5034140;28;20052;-77
2023/06/14 06:28:22;;;;;;;29.25;17.40;;;;;;;16.45;86.16;99735.13;5034304;28;20053;-77
2023/06/14 06:30:47;;;;;;;23.52;17.58;;;;;;;16.22;87.41;99707.81;5034250;28;20150;-77
2023/06/14 06:33:13;;;;;;;22.77;16.70;;;;;;;15.90;88.30;99702.97;5033915;28;20079;-77
2023/06/14 06:35:39;;;;;;;23.02;16.77;;;;;;;16.33;88.25;99704.44;5034391;28;20056;-77
2023/06/14 06:38:05;;;;;;;23.58;16.15;;;;;;;16.64;86.18;99697.88;5033979;28;20021;-77
2023/06/14 06:40:30;;;;;;;21.75;15.57;;;;;;;16.85;84.87;99701.63;5034134;28;20436;-77
2023/06/14 06:42:55;;;;;;;18.23;13.88;;;;;;;17.16;84.52;99721.31;5033934;28;20381;-78
2023/06/14 06:45:23;;;;;;;20.05;15.32;;;;;;;17.25;83.78;99711.06;5033955;28;20389;-77
2023/06/14 06:47:50;;;;;;;21.77;16.40;;;;;;;17.04;83.48;99710.84;5034412;28;20083;-77
2023/06/14 06:50:15;;;;;;;20.80;16.15;;;;;;;16.86;84.39;99702.50;5034020;28;20116;-77
2023/06/14 06:52:40;;;;;;;29.00;18.83;;;;;;;16.77;85.07;99713.63;5032606;28;20105;-77
2023/06/14 06:55:06;;;;;;;25.98;19.00;;;;;;;16.41;85.89;99716.09;5033549;28;20087;-77
2023/06/14 06:57:32;;;;;;;29.27;21.40;;;;;;;15.99;87.72;99704.13;5033711;28;20029;-77
2023/06/14 06:59:57;;;;;;;30.40;21.13;;;;;;;15.83;89.73;99745.50;5033752;28;20033;-77
2023/06/14 07:02:22;;;;;;;28.83;21.13;;;;;;;15.51;90.88;99724.84;5033706;28;20030;-77
2023/06/14 07:04:48;;;;;;;23.50;17.95;;;;;;;15.62;91.17;99758.25;5033649;28;20029;-77
2023/06/14 07:07:13;;;;;;;25.17;18.38;;;;;;;15.43;91.99;99746.31;5033509;28;20087;-77
2023/06/14 07:09:40;;;;;;;23.92;18.67;;;;;;;15.68;92.60;99750.00;5033485;28;20052;-77
2023/06/14 07:12:06;;;;;;;22.48;17.17;;;;;;;16.50;89.10;99733.03;5040292;28;20055;-77
2023/06/14 07:14:32;;;;;;;24.17;17.63;;;;;;;17.01;86.06;99747.88;5042992;28;20028;-78
2023/06/14 07:16:57;;;;;;;23.65;17.75;;;;;;;17.04;84.50;99722.19;5034933;28;20017;-77
2023/06/14 07:19:22;;;;;;;23.95;17.75;;;;;;;17.40;83.89;99752.91;5036840;28;20503;-77
2023/06/14 07:21:48;;;;;;;24.60;17.73;;;;;;;17.34;83.13;99734.09;5041434;28;20033;-78
2023/06/14 07:24:13;;;;;;;22.75;16.90;;;;;;;18.73;82.16;99714.75;5037725;28;20080;-77
2023/06/14 07:26:39;;;;;;;17.63;14.55;;;;;;;22.03;73.08;99741.88;5035522;28;20112;-77
2023/06/14 07:29:04;;;;;;;19.88;14.15;;;;;;;24.26;65.30;99735.19;5032976;28;20079;-78
2023/06/14 07:31:30;;;;;;;19.35;16.55;;;;;;;25.51;58.63;99742.53;5032967;28;20031;-78
2023/06/14 07:33:55;;;;;;;18.38;14.93;;;;;;;24.45;59.38;99744.84;5032557;28;20136;-78
2023/06/14 07:36:22;;;;;;;19.45;16.08;;;;;;;22.95;61.82;99748.31;5033079;28;20123;-78
2023/06/14 07:38:47;;;;;;;16.67;14.88;;;;;;;21.40;65.58;99749.44;5032995;28;20025;-78
2023/06/14 07:41:12;;;;;;;19.13;16.27;;;;;;;20.33;68.61;99733.19;5032724;28;20032;-78
2023/06/14 07:43:37;;;;;;;17.85;14.25;;;;;;;19.94;70.62;99754.13;5033115;28;20124;-78
2023/06/14 07:46:05;;;;;;;18.10;15.98;;;;;;;19.67;71.93;99738.75;5032406;28;20104;-78
2023/06/14 07:48:30;;;;;;;16.88;14.90;;;;;;;19.52;72.44;99732.06;5032799;28;20526;-78
2023/06/14 07:50:55;;;;;;;15.98;14.02;;;;;;;20.67;71.81;99746.19;5032627;28;20021;-78
2023/06/14 07:53:21;;;;;;;18.23;15.05;;;;;;;22.25;65.60;99740.75;5032744;28;20381;-78
2023/06/14 07:55:47;;;;;;;13.68;11.65;;;;;;;22.46;63.73;99740.53;5032582;28;20030;-78
2023/06/14 07:58:12;;;;;;;13.02;11.73;;;;;;;22.51;62.76;99742.75;5032248;28;20106;-78
2023/06/14 08:00:38;;;;;;;13.57;12.18;;;;;;;22.38;62.62;99735.13;5032366;28;20116;-78
2023/06/14 08:03:03;;;;;;;18.63;11.35;;;;;;;22.84;61.93;99738.69;5032758;28;20037;-78
2023/06/14 08:05:29;;;;;;;13.52;11.05;;;;;;;23.06;61.96;99742.78;5032506;28;20469;-78
2023/06/14 08:07:55;;;;;;;13.80;12.50;;;;;;;23.68;60.02;99740.25;5032526;28;20033;-78
2023/06/14 08:10:21;;;;;;;11.93;10.73;;;;;;;23.66;59.55;99724.47;5032341;28;20366;-78
2023/06/14 08:12:48;;;;;;;15.27;13.68;;;;;;;22.78;61.21;99726.81;5032358;28;20051;-78
2023/06/14 08:15:13;;;;;;;13.25;12.02;;;;;;;22.01;63.14;99709.34;5031685;28;20033;-78
2023/06/14 08:17:39;;;;;;;12.38;11.05;;;;;;;21.88;64.23;99717.63;5032495;28;20033;-78
2023/06/14 08:20:05;;;;;;;16.83;13.93;;;;;;;21.97;64.03;99718.59;5032235;28;20017;-78
2023/06/14 08:22:33;;;;;;;12.68;11.38;;;;;;;22.19;63.29;99721.91;5032261;28;20512;-78
2023/06/14 08:24:59;;;;;;;13.13;11.68;;;;;;;22.30;62.75;99729.69;5031738;28;20510;-78
2023/06/14 08:27:25;;;;;;;14.55;12.75;;;;;;;22.02;62.77;99703.06;5032138;28;20029;-78
2023/06/14 08:29:51;;;;;;;13.93;12.63;;;;;;;22.03;63.20;99720.66;5032007;28;20026;-78
2023/06/14 08:32:16;;;;;;;13.27;11.35;;;;;;;21.95;63.20;99730.28;5036697;28;20934;-78
2023/06/14 08:34:41;;;;;;;12.05;10.80;;;;;;;22.00;63.75;99741.34;5031855;28;20041;-78
2023/06/14 08:37:07;;;;;;;11.88;10.68;;;;;;;21.66;63.75;99731.19;5033340;28;20483;-78
2023/06/14 08:39:33;;;;;;;14.82;13.27;;;;;;;21.16;64.21;99741.88;5039124;28;20033;-78
2023/06/14 08:42:01;;;;;;;14.05;12.65;;;;;;;20.54;65.57;99717.28;5041120;28;20034;-77
2023/06/14 08:44:26;;;;;;;13.85;12.30;;;;;;;20.67;66.43;99744.38;5040293;28;20117;-77
2023/06/14 08:46:53;;;;;;;11.93;10.73;;;;;;;20.35;67.11;99717.16;5039622;28;20548;-77
2023/06/14 08:49:19;;;;;;;12.60;11.38;;;;;;;20.09;66.91;99696.44;5040983;28;20404;-77
2023/06/14 08:51:47;;;;;;;10.18;9.02;;;;;;;20.31;67.72;99718.41;5040623;28;20056;-77
2023/06/14 08:54:14;;;;;;;9.95;8.95;;;;;;;20.49;66.57;99732.75;5034257;28;20040;-77
2023/06/14 08:56:41;;;;;;;9.23;8.32;;;;;;;20.37;66.58;99718.72;5038175;28;20439;-77
2023/06/14 08:59:08;;;;;;;9.85;8.95;;;;;;;20.41;67.08;99735.19;5038975;28;20056;-77
2023/06/14 09:01:34;;;;;;;11.73;10.63;;;;;;;20.15;68.10;99740.06;5042076;28;20028;-77
2023/06/14 09:04:02;;;;;;;14.15;12.65;;;;;;;19.82;68.46;99715.50;5051515;28;20029;-77
2023/06/14 09:06:28;;;;;;;14.23;11.38;;;;;;;19.61;69.06;99743.72;5051651;28;20021;-77
2023/06/14 09:08:55;;;;;;;12.57;11.23;;;;;;;19.45;69.99;99733.53;5047426;28;20078;-77
2023/06/14 09:11:20;;;;;;;10.63;9.55;;;;;;;19.50;70.47;99715.50;5039661;28;20014;-77
2023/06/14 09:13:46;;;;;;;11.55;10.45;;;;;;;19.64;70.44;99712.59;5041909;28;20207;-77
2023/06/14 09:16:12;;;;;;;13.05;11.75;;;;;;;19.64;70.31;99723.16;5042434;28;20032;-77
2023/06/14 09:18:43;;;;;;;13.80;8.93;;;;;;;19.47;69.82;99742.19;5050819;28;20029;-77
2023/06/14 09:21:09;;;;;;;10.60;8.73;;;;;;;19.28;70.09;99756.03;5050962;28;20025;-77
2023/06/14 09:23:41;;;;;;;8.88;7.95;;;;;;;18.91;70.17;99735.22;5051586;28;20031;-77
2023/06/14 09:26:15;;;;;;;10.40;7.53;;;;;;;18.73;69.59;99706.84;5051170;28;20025;-77
2023/06/14 09:28:49;;;;;;;8.55;7.75;;;;;;;18.69;71.09;99751.94;5051503;28;20040;-77
2023/06/14 09:31:19;;;;;;;12.27;11.00;;;;;;;18.57;73.22;99755.50;5051165;28;20486;-77
2023/06/14 09:33:47;;;;;;;13.23;10.68;;;;;;;18.63;73.61;99741.84;5051306;28;20123;-77
2023/06/14 09:36:24;;;;;;;11.27;8.90;;;;;;;18.64;72.36;99725.03;5051148;28;20053;-77
2023/06/14 09:39:00;;;;;;;9.00;8.18;;;;;;;19.02;72.00;99744.09;5051472;28;20033;-77
2023/06/14 09:41:40;;;;;;;11.18;9.70;;;;;;;18.87;71.73;99719.75;5051421;28;20021;-77
2023/06/14 09:44:07;;;;;;;11.10;9.93;;;;;;;18.86;71.72;99724.19;5051424;28;20082;-77
2023/06/14 09:46:34;;;;;;;11.48;9.60;;;;;;;18.98;71.93;99714.47;5051121;28;20052;-76
2023/06/14 09:49:01;;;;;;;15.05;9.10;;;;;;;19.31;71.67;99742.59;5050967;28;20025;-76
2023/06/14 09:51:27;;;;;;;10.85;9.75;;;;;;;19.36;70.51;99718.44;5051377;28;20033;-76
2023/06/14 09:53:58;;;;;;;12.18;10.15;;;;;;;19.47;70.39;99739.53;5051283;28;20021;-77
2023/06/14 09:56:33;;;;;;;9.90;8.97;;;;;;;19.45;70.95;99739.66;5052017;28;20443;-76
2023/06/14 09:58:59;;;;;;;9.77;8.70;;;;;;;19.66;70.55;99738.88;5054694;28;20029;-77
2023/06/14 10:01:31;;;;;;;10.40;9.43;;;;;;;19.71;69.18;99714.72;5054398;28;20116;-77
2023/06/14 10:04:05;;;;;;;7.90;7.18;;;;;;;20.05;68.81;99734.69;5054628;28;20676;-77
2023/06/14 10:06:31;;;;;;;7.57;6.88;;;;;;;20.43;68.53;99731.41;5054555;28;20025;-77
2023/06/14 10:08:59;;;;;;;7.10;6.50;;;;;;;20.67;67.22;99719.72;5054613;28;20075;-77
2023/06/14 10:11:29;;;;;;;9.15;6.93;;;;;;;20.68;65.98;99708.97;5054170;28;20025;-77
2023/06/14 10:13:58;;;;;;;7.93;6.85;;;;;;;20.72;64.74;99743.13;5054353;28;20021;-77
2023/06/14 10:16:34;;;;;;;7.93;7.15;;;;;;;20.31;65.79;99748.38;5054244;28;20086;-76
2023/06/14 10:19:20;;;;;;;8.52;7.72;;;;;;;19.89;67.50;99744.91;5054501;28;20036;-76
2023/06/14 10:22:06;;;;;;;9.80;8.85;;;;;;;19.69;68.71;99746.56;5054362;28;20357;-76
2023/06/14 10:24:50;;;;;;;9.82;8.88;;;;;;;19.60;69.22;99742.00;5054088;28;20029;-77
2023/06/14 10:27:23;;;;;;;8.63;7.68;;;;;;;19.67;69.13;99728.16;5054052;28;20029;-76
2023/06/14 10:29:55;;;;;;;8.93;8.13;;;;;;;19.89;68.23;99742.25;5054156;28;20032;-76
2023/06/14 10:32:23;;;;;;;10.07;7.50;;;;;;;19.94;67.82;99711.00;5053901;28;20033;-77
2023/06/14 10:35:01;;;;;;;7.90;7.20;;;;;;;20.45;67.62;99733.94;5054284;28;20107;-77
2023/06/14 10:37:27;;;;;;;8.88;7.38;;;;;;;20.59;66.61;99715.09;5054043;28;20052;-77
2023/06/14 10:39:53;;;;;;;8.23;6.55;;;;;;;20.60;65.21;99695.59;5054231;28;20036;-77
2023/06/14 10:42:19;;;;;;;6.95;6.35;;;;;;;20.55;65.46;99704.91;5053827;28;20029;-77
2023/06/14 10:44:53;;;;;;;7.32;5.93;;;;;;;20.57;64.50;99702.97;5053856;28;20078;-77
2023/06/14 10:47:34;;;;;;;6.20;5.60;;;;;;;20.65;64.53;99703.97;5053589;28;20456;-79
2023/06/14 10:50:10;;;;;;;6.38;5.80;;;;;;;20.90;64.07;99723.84;5054048;28;20040;-79
2023/06/14 10:52:42;;;;;;;9.40;6.60;;;;;;;20.99;63.42;99721.34;5053929;28;20056;-76
2023/06/14 10:55:14;;;;;;;6.55;5.82;;;;;;;20.65;63.83;99733.09;5053706;28;20052;-77
2023/06/14 10:57:45;;;;;;;6.53;5.50;;;;;;;20.21;65.12;99702.50;5053735;28;20064;-77
2023/06/14 11:00:12;;;;;;;9.27;6.33;;;;;;;20.27;66.10;99717.84;5053680;28;20456;-76
2023/06/14 11:02:54;;;;;;;8.77;6.15;;;;;;;20.03;66.98;99736.63;5053673;28;20274;-76
2023/06/14 11:05:29;;;;;;;7.53;6.60;;;;;;;19.67;67.97;99714.13;5053387;28;20067;-77
2023/06/14 11:08:11;;;;;;;7.80;7.00;;;;;;;19.66;68.02;99733.59;5053032;28;20079;-77
2023/06/14 11:10:45;;;;;;;7.20;6.50;;;;;;;19.49;68.09;99710.34;5053570;28;20108;-77
2023/06/14 11:13:10;;;;;;;7.15;6.15;;;;;;;19.62;68.32;99733.00;5053317;28;20515;-79
2023/06/14 11:15:37;;;;;;;6.38;5.88;;;;;;;19.52;68.36;99725.94;5053334;28;20025;-77
2023/06/14 11:18:04;;;;;;;8.80;6.47;;;;;;;19.46;68.44;99722.00;5053345;28;20431;-77
2023/06/14 11:20:32;;;;;;;7.65;5.88;;;;;;;19.13;68.59;99688.63;5053151;28;20021;-76
2023/06/14 11:22:58;;;;;;;7.43;6.18;;;;;;;19.09;68.75;99693.34;5053148;28;20033;-76
2023/06/14 11:25:24;;;;;;;7.38;5.20;;;;;;;19.21;68.77;99712.59;5053180;28;20104;-76